createdAt,value
2022-09-30T00:02:56.938Z,49.03
2022-09-30T00:07:55.684Z,49.13
2022-09-30T00:12:54.803Z,48.73
2022-09-30T00:17:53.471Z,48.86
2022-09-30T00:22:53.539Z,49.07
2022-09-30T00:27:52.315Z,49.29
2022-09-30T00:32:51.015Z,49.50
2022-09-30T00:37:49.742Z,49.58
2022-09-30T00:42:50.433Z,49.73
2022-09-30T00:47:53.854Z,49.87
2022-09-30T00:52:57.096Z,49.85
2022-09-30T00:57:58.383Z,50.05
2022-09-30T01:02:57.438Z,49.89
2022-09-30T01:07:59.121Z,50.11
2022-09-30T01:13:00.142Z,50.18
2022-09-30T01:18:07.917Z,50.19
2022-09-30T01:23:24.980Z,50.26
2022-09-30T01:28:56.595Z,50.54
2022-09-30T01:34:03.865Z,50.70
2022-09-30T01:39:16.772Z,50.67
2022-09-30T01:44:20.400Z,51.03
2022-09-30T01:49:31.138Z,51.47
2022-09-30T01:54:35.566Z,51.27
2022-09-30T01:59:38.613Z,51.10
2022-09-30T02:04:43.734Z,51.04
2022-09-30T02:09:49.377Z,51.58
2022-09-30T02:14:54.527Z,51.86
2022-09-30T02:20:00.611Z,51.92
2022-09-30T02:25:03.159Z,52.31
2022-09-30T02:30:04.194Z,52.08
2022-09-30T02:35:08.862Z,51.85
2022-09-30T02:40:13.161Z,52.03
2022-09-30T02:45:16.498Z,52.10
2022-09-30T02:50:21.690Z,51.93
2022-09-30T02:55:28.163Z,51.77
2022-09-30T03:00:27.992Z,51.63
2022-09-30T03:05:28.945Z,51.90
2022-09-30T03:10:30.548Z,52.07
2022-09-30T03:15:42.356Z,52.29
2022-09-30T03:20:53.823Z,52.18
2022-09-30T03:26:00.473Z,52.00
2022-09-30T03:31:07.135Z,51.93
2022-09-30T03:36:15.219Z,52.24
2022-09-30T03:41:20.540Z,53.80
2022-09-30T03:46:26.181Z,54.37
2022-09-30T03:51:26.575Z,54.34
2022-09-30T03:56:29.754Z,54.75
2022-09-30T04:01:29.418Z,54.38
2022-09-30T04:06:29.639Z,54.40
2022-09-30T04:11:28.434Z,56.98
2022-09-30T04:16:27.271Z,56.75
2022-09-30T04:21:28.824Z,56.89
2022-09-30T04:26:29.024Z,56.02
2022-09-30T04:31:27.824Z,55.73
2022-09-30T04:36:26.611Z,56.13
2022-09-30T04:41:25.966Z,56.07
2022-09-30T04:46:26.171Z,56.05
2022-09-30T04:51:24.882Z,56.33
2022-09-30T04:56:24.552Z,56.19
2022-09-30T05:01:23.417Z,56.36
2022-09-30T05:06:23.583Z,55.62
2022-09-30T05:11:23.158Z,55.44
2022-09-30T05:16:21.980Z,55.53
2022-09-30T05:21:21.285Z,55.30
2022-09-30T05:26:21.354Z,55.06
2022-09-30T05:31:21.017Z,54.91
2022-09-30T05:36:19.847Z,55.26
2022-09-30T05:41:20.511Z,55.00
2022-09-30T05:46:21.272Z,54.86
2022-09-30T05:51:20.208Z,55.81
2022-09-30T05:56:18.970Z,55.34
2022-09-30T06:01:18.197Z,56.33
2022-09-30T06:06:20.175Z,56.03
2022-09-30T06:11:20.969Z,55.61
2022-09-30T06:16:20.286Z,56.32
2022-09-30T06:21:22.946Z,57.01
2022-09-30T06:26:24.653Z,56.56
2022-09-30T06:31:23.898Z,55.76
2022-09-30T06:36:24.043Z,54.93
2022-09-30T06:41:27.688Z,55.42
2022-09-30T06:46:31.072Z,54.37
2022-09-30T06:51:33.270Z,54.54
2022-09-30T06:56:32.741Z,54.03
2022-09-30T07:01:31.478Z,53.47
2022-09-30T07:06:31.307Z,52.93
2022-09-30T07:11:31.412Z,52.27
2022-09-30T07:16:31.761Z,51.50
2022-09-30T07:21:32.059Z,51.37
2022-09-30T07:26:32.296Z,51.04
2022-09-30T07:31:34.008Z,50.26
2022-09-30T07:36:34.482Z,49.47
2022-09-30T07:41:36.632Z,49.11
2022-09-30T07:46:39.235Z,48.46
2022-09-30T07:51:41.028Z,48.39
2022-09-30T07:57:10.285Z,48.14
2022-09-30T08:02:03.113Z,47.59
2022-09-30T08:07:03.587Z,47.21
2022-09-30T08:12:07.411Z,46.38
2022-09-30T08:17:06.364Z,45.94
2022-09-30T08:22:06.622Z,45.91
2022-09-30T08:27:07.041Z,45.93
2022-09-30T08:32:06.000Z,44.78
2022-09-30T08:37:09.259Z,43.83
2022-09-30T08:42:36.602Z,43.92
2022-09-30T08:47:48.177Z,42.30
2022-09-30T08:52:50.209Z,41.21
2022-09-30T08:57:51.447Z,39.54
2022-09-30T09:02:55.936Z,37.80
2022-09-30T09:08:05.152Z,34.79
2022-09-30T09:13:13.575Z,34.14
2022-09-30T09:18:47.087Z,32.59
2022-09-30T09:23:46.420Z,30.25
2022-09-30T09:28:58.173Z,29.68
2022-09-30T09:34:01.946Z,27.27
2022-09-30T09:39:17.684Z,27.37
2022-09-30T09:44:26.989Z,26.69
2022-09-30T09:49:32.468Z,26.02
2022-09-30T09:54:34.182Z,24.31
2022-09-30T09:59:34.291Z,24.94
2022-09-30T10:04:33.330Z,22.89
2022-09-30T10:09:34.790Z,21.89
2022-09-30T10:14:36.700Z,22.22
2022-09-30T10:19:36.558Z,20.83
2022-09-30T10:24:36.735Z,21.62
2022-09-30T10:29:37.500Z,22.56
2022-09-30T10:34:39.844Z,20.39
2022-09-30T10:39:40.571Z,21.38
2022-09-30T10:44:47.067Z,21.48
2022-09-30T10:49:49.769Z,19.97
2022-09-30T10:54:51.254Z,18.74
2022-09-30T10:59:54.554Z,18.05
2022-09-30T11:05:03.869Z,19.67
2022-09-30T11:10:07.975Z,18.10
2022-09-30T11:15:17.539Z,17.93
2022-09-30T11:20:22.315Z,18.56
2022-09-30T11:25:28.959Z,17.75
2022-09-30T11:30:39.332Z,17.09
2022-09-30T11:35:47.393Z,16.90
2022-09-30T11:40:55.936Z,16.72
2022-09-30T11:46:18.066Z,16.66
2022-09-30T11:51:25.260Z,16.68
2022-09-30T11:56:37.702Z,15.81
2022-09-30T12:01:44.024Z,16.11
2022-09-30T12:06:50.230Z,16.41
2022-09-30T12:11:55.714Z,17.17
2022-09-30T12:16:57.907Z,16.29
2022-09-30T12:22:02.638Z,15.34
2022-09-30T12:27:02.323Z,14.93
2022-09-30T12:32:21.618Z,14.57
2022-09-30T12:37:35.779Z,14.84
2022-09-30T12:43:02.174Z,14.83
2022-09-30T12:48:08.006Z,13.87
2022-09-30T12:53:17.763Z,14.69
2022-09-30T12:58:26.186Z,14.22
2022-09-30T13:03:28.854Z,13.44
2022-09-30T13:08:50.593Z,14.38
2022-09-30T13:14:03.887Z,14.26
2022-09-30T13:19:04.180Z,15.28
2022-09-30T13:24:04.664Z,15.45
2022-09-30T13:29:38.263Z,15.71
2022-09-30T13:34:56.754Z,14.44
2022-09-30T13:39:58.015Z,14.88
2022-09-30T13:45:03.820Z,14.80
2022-09-30T13:50:14.319Z,14.75
2022-09-30T13:55:19.798Z,15.32
2022-09-30T14:00:21.540Z,15.32
2022-09-30T14:05:42.606Z,15.08
2022-09-30T14:10:58.817Z,15.12
2022-09-30T14:16:22.926Z,15.21
2022-09-30T14:21:35.263Z,15.27
2022-09-30T14:26:56.365Z,15.81
2022-09-30T14:32:12.977Z,16.79
2022-09-30T14:37:20.083Z,17.42
2022-09-30T14:42:25.438Z,18.70
2022-09-30T14:47:25.963Z,19.28
2022-09-30T14:52:38.398Z,19.39
2022-09-30T14:57:37.198Z,20.06
2022-09-30T15:02:36.263Z,20.02
2022-09-30T15:07:36.535Z,19.64
2022-09-30T15:12:37.581Z,20.05
2022-09-30T15:17:38.896Z,20.02
2022-09-30T15:22:47.777Z,19.52
2022-09-30T15:27:46.998Z,19.59
2022-09-30T15:32:50.277Z,19.36
2022-09-30T15:37:53.083Z,20.04
2022-09-30T15:42:59.691Z,20.19
2022-09-30T15:48:02.451Z,19.86
2022-09-30T15:53:08.936Z,21.02
2022-09-30T15:58:36.548Z,21.55
2022-09-30T16:03:38.746Z,22.03
2022-09-30T16:08:45.488Z,22.31
2022-09-30T16:13:45.933Z,23.18
2022-09-30T16:18:54.982Z,23.86
2022-09-30T16:23:55.633Z,24.24
2022-09-30T16:28:56.020Z,24.40
2022-09-30T16:33:54.689Z,25.10
2022-09-30T16:38:54.865Z,25.89
2022-09-30T16:43:53.703Z,26.39
2022-09-30T16:48:52.781Z,26.48
2022-09-30T16:53:51.934Z,27.08
2022-09-30T16:58:52.568Z,27.22
2022-09-30T17:03:54.346Z,27.52
2022-09-30T17:08:53.655Z,27.87
2022-09-30T17:13:54.012Z,28.29
2022-09-30T17:18:53.551Z,28.74
2022-09-30T17:23:52.681Z,29.42
2022-09-30T17:28:51.557Z,29.46
2022-09-30T17:33:52.004Z,29.85
2022-09-30T17:38:56.549Z,30.17
2022-09-30T17:43:55.521Z,30.42
2022-09-30T17:48:58.062Z,30.72
2022-09-30T17:53:57.102Z,30.79
2022-09-30T17:58:58.494Z,31.19
2022-09-30T18:04:01.334Z,31.37
2022-09-30T18:09:00.771Z,31.41
2022-09-30T18:14:02.036Z,32.40
2022-09-30T18:19:02.936Z,32.24
2022-09-30T18:24:02.138Z,32.92
2022-09-30T18:29:01.204Z,33.36
2022-09-30T18:34:03.050Z,33.19
2022-09-30T18:39:02.823Z,33.76
2022-09-30T18:44:02.585Z,34.15
2022-09-30T18:49:03.402Z,34.01
2022-09-30T18:54:02.663Z,34.51
2022-09-30T18:59:04.211Z,34.18
2022-09-30T19:04:07.290Z,34.23
2022-09-30T19:09:08.092Z,34.79
2022-09-30T19:14:07.145Z,35.09
2022-09-30T19:19:08.302Z,34.88
2022-09-30T19:24:11.447Z,35.85
2022-09-30T19:29:11.534Z,35.44
2022-09-30T19:34:15.582Z,35.85
2022-09-30T19:39:18.854Z,36.04
2022-09-30T19:44:19.265Z,36.07
2022-09-30T19:49:21.755Z,36.21
2022-09-30T19:54:33.845Z,36.63
2022-09-30T19:59:37.103Z,36.82
2022-09-30T20:04:41.531Z,37.40
2022-09-30T20:09:42.859Z,37.85
2022-09-30T20:14:59.088Z,38.40
2022-09-30T20:20:27.564Z,38.08
2022-09-30T20:25:38.497Z,38.79
2022-09-30T20:30:51.495Z,38.94
2022-09-30T20:35:55.734Z,39.65
2022-09-30T20:40:57.241Z,39.71
2022-09-30T20:46:00.356Z,39.80
2022-09-30T20:51:01.076Z,39.92
2022-09-30T20:56:02.050Z,40.58
2022-09-30T21:01:03.700Z,40.40
2022-09-30T21:06:03.902Z,40.11
2022-09-30T21:11:04.062Z,41.46
2022-09-30T21:16:05.288Z,41.02
2022-09-30T21:21:06.124Z,41.34
2022-09-30T21:26:07.240Z,41.23
2022-09-30T21:31:08.072Z,41.66
2022-09-30T21:36:08.495Z,41.24
2022-09-30T21:41:08.666Z,41.56
2022-09-30T21:46:09.313Z,42.19
2022-09-30T21:51:10.337Z,42.00
2022-09-30T21:56:11.726Z,41.78
2022-09-30T22:01:11.800Z,41.79
2022-09-30T22:06:13.132Z,42.29
2022-09-30T22:11:17.703Z,42.03
2022-09-30T22:16:17.018Z,42.54
2022-09-30T22:21:19.316Z,42.53
2022-09-30T22:26:21.477Z,42.96
2022-09-30T22:31:22.270Z,42.94
2022-09-30T22:36:39.652Z,42.91
2022-09-30T22:41:39.406Z,43.14
2022-09-30T22:46:39.484Z,43.34
2022-09-30T22:51:39.715Z,43.45
2022-09-30T22:56:38.569Z,44.35
2022-09-30T23:01:37.575Z,44.30
2022-09-30T23:06:36.776Z,44.35
2022-09-30T23:11:37.018Z,44.28
2022-09-30T23:16:35.982Z,44.16
2022-09-30T23:21:35.498Z,44.21
2022-09-30T23:26:34.591Z,44.06
2022-09-30T23:31:35.816Z,44.05
2022-09-30T23:36:36.985Z,44.34
2022-09-30T23:41:36.496Z,44.26
2022-09-30T23:46:37.117Z,44.41
2022-09-30T23:51:36.199Z,44.49
2022-09-30T23:56:35.333Z,44.50
